createdAt,value
2022-11-12T00:01:13.764Z,7.60
2022-11-12T00:03:59.162Z,7.50
2022-11-12T00:06:44.725Z,7.70
2022-11-12T00:09:30.557Z,7.60
2022-11-12T00:12:15.941Z,7.70
2022-11-12T00:15:01.751Z,7.90
2022-11-12T00:17:47.579Z,7.60
2022-11-12T00:20:33.530Z,7.50
2022-11-12T00:23:18.844Z,7.50
2022-11-12T00:26:04.471Z,7.30
2022-11-12T00:28:49.772Z,7.50
2022-11-12T00:31:35.053Z,7.70
2022-11-12T00:34:20.530Z,7.70
2022-11-12T00:37:06.164Z,7.50
2022-11-12T00:39:51.938Z,7.40
2022-11-12T00:42:37.382Z,7.10
2022-11-12T00:45:22.930Z,7.60
2022-11-12T00:48:08.386Z,7.40
2022-11-12T00:51:03.820Z,7.40
2022-11-12T00:53:50.670Z,7.40
2022-11-12T00:59:22.673Z,7.40
2022-11-12T01:02:08.209Z,7.30
2022-11-12T01:04:53.663Z,7.50
2022-11-12T01:07:39.093Z,7.20
2022-11-12T01:10:24.733Z,7.30
2022-11-12T01:13:10.499Z,7.20
2022-11-12T01:15:56.124Z,7.30
2022-11-12T01:18:42.082Z,7.40
2022-11-12T01:21:31.453Z,7.20
2022-11-12T01:24:16.981Z,7.20
2022-11-12T01:27:02.455Z,7.30
2022-11-12T01:29:47.972Z,7.30
2022-11-12T01:32:37.498Z,7.30
2022-11-12T01:35:23.026Z,7.00
2022-11-12T01:38:08.605Z,7.00
2022-11-12T01:40:54.557Z,7.30
2022-11-12T01:43:40.288Z,7.30
2022-11-12T01:46:29.951Z,7.10
2022-11-12T01:49:33.468Z,7.10
2022-11-12T01:52:26.804Z,7.20
2022-11-12T01:55:19.184Z,7.30
2022-11-12T01:58:11.038Z,7.60
2022-11-12T02:00:57.692Z,7.20
2022-11-12T02:03:43.499Z,7.00
2022-11-12T02:06:29.570Z,7.50
2022-11-12T02:09:15.301Z,6.90
2022-11-12T02:17:33.665Z,6.90
2022-11-12T02:20:19.838Z,7.00
2022-11-12T02:23:08.275Z,7.10
2022-11-12T02:25:53.657Z,7.00
2022-11-12T02:28:39.041Z,6.90
2022-11-12T02:31:24.387Z,6.90
2022-11-12T02:34:10.000Z,7.00
2022-11-12T02:36:55.378Z,6.90
2022-11-12T02:39:40.759Z,6.90
2022-11-12T02:42:26.286Z,6.90
2022-11-12T02:45:11.885Z,7.00
2022-11-12T02:47:57.951Z,6.80
2022-11-12T02:50:43.574Z,6.90
2022-11-12T02:53:29.222Z,6.80
2022-11-12T02:59:01.425Z,6.90
2022-11-12T03:01:47.168Z,6.80
2022-11-12T03:04:32.693Z,6.80
2022-11-12T03:07:18.340Z,6.80
2022-11-12T03:10:05.756Z,6.90
2022-11-12T03:12:51.656Z,6.80
2022-11-12T03:15:37.381Z,6.80
2022-11-12T03:18:23.234Z,6.70
2022-11-12T03:21:08.930Z,6.80
2022-11-12T03:23:54.233Z,6.70
2022-11-12T03:26:39.728Z,6.70
2022-11-12T03:32:12.031Z,6.60
2022-11-12T03:34:57.414Z,6.60
2022-11-12T03:37:42.947Z,6.60
2022-11-12T03:40:29.868Z,6.70
2022-11-12T03:43:15.177Z,6.60
2022-11-12T03:46:02.009Z,6.60
2022-11-12T03:48:47.671Z,6.00
2022-11-12T03:51:33.126Z,6.70
2022-11-12T03:54:20.104Z,6.60
2022-11-12T03:57:05.402Z,6.50
2022-11-12T03:59:50.931Z,6.50
2022-11-12T04:05:41.986Z,6.50
2022-11-12T04:08:36.595Z,6.50
2022-11-12T04:11:22.375Z,6.50
2022-11-12T04:14:07.946Z,6.50
2022-11-12T04:23:02.812Z,6.60
2022-11-12T04:29:12.349Z,5.70
2022-11-12T04:32:00.400Z,6.40
2022-11-12T04:34:46.222Z,6.50
2022-11-12T04:37:44.442Z,6.40
2022-11-12T04:40:49.971Z,6.40
2022-11-12T04:43:54.278Z,6.40
2022-11-12T04:46:40.109Z,6.40
2022-11-12T04:49:25.612Z,6.40
2022-11-12T04:52:11.090Z,6.50
2022-11-12T04:54:57.167Z,6.40
2022-11-12T04:57:42.916Z,6.40
2022-11-12T05:00:28.559Z,6.50
2022-11-12T05:03:15.096Z,6.40
2022-11-12T05:06:03.816Z,6.30
2022-11-12T05:08:49.190Z,6.30
2022-11-12T05:14:22.021Z,6.40
2022-11-12T05:17:07.677Z,6.30
2022-11-12T05:19:53.224Z,6.30
2022-11-12T05:22:47.756Z,6.30
2022-11-12T05:25:39.989Z,6.30
2022-11-12T05:28:25.911Z,6.20
2022-11-12T05:31:11.517Z,6.40
2022-11-12T05:33:57.286Z,6.30
2022-11-12T05:36:42.870Z,6.20
2022-11-12T05:45:00.606Z,5.90
2022-11-12T05:50:39.881Z,6.10
2022-11-12T05:53:37.296Z,6.30
2022-11-12T05:56:22.743Z,6.30
2022-11-12T05:59:10.957Z,6.30
2022-11-12T06:04:42.582Z,6.20
2022-11-12T06:07:28.104Z,6.20
2022-11-12T06:10:19.082Z,6.10
2022-11-12T06:13:07.031Z,6.00
2022-11-12T06:15:54.089Z,6.10
2022-11-12T06:18:39.625Z,6.10
2022-11-12T06:21:27.674Z,6.00
2022-11-12T06:24:13.536Z,6.20
2022-11-12T06:26:59.617Z,6.20
2022-11-12T06:29:45.129Z,6.20
2022-11-12T06:32:30.549Z,6.00
2022-11-12T06:35:18.063Z,6.00
2022-11-12T06:38:03.917Z,6.10
2022-11-12T06:40:49.462Z,6.00
2022-11-12T06:43:35.726Z,5.20
2022-11-12T06:49:07.343Z,6.20
2022-11-12T06:54:38.995Z,6.00
2022-11-12T06:57:24.618Z,5.90
2022-11-12T07:00:11.855Z,6.00
2022-11-12T07:05:43.950Z,5.90
2022-11-12T07:08:29.534Z,5.90
2022-11-12T07:16:48.030Z,6.10
2022-11-12T07:19:33.604Z,6.00
2022-11-12T07:27:53.206Z,6.00
2022-11-12T07:33:25.945Z,6.00
2022-11-12T07:36:15.019Z,6.00
2022-11-12T07:41:46.788Z,5.90
2022-11-12T07:47:21.323Z,6.00
2022-11-12T07:50:07.258Z,6.00
2022-11-12T07:52:52.987Z,5.90
2022-11-12T07:55:38.350Z,6.40
2022-11-12T07:58:24.918Z,6.00
2022-11-12T08:01:31.941Z,7.20
2022-11-12T08:04:18.663Z,5.70
2022-11-12T08:07:04.539Z,6.00
2022-11-12T08:09:50.344Z,7.00
2022-11-12T08:15:21.953Z,5.90
2022-11-12T08:18:07.538Z,6.00
2022-11-12T08:20:53.378Z,6.00
2022-11-12T08:23:38.957Z,5.90
2022-11-12T08:29:11.838Z,5.90
2022-11-12T08:31:57.436Z,6.00
2022-11-12T08:34:43.752Z,6.00
2022-11-12T08:40:15.729Z,6.00
2022-11-12T08:43:10.012Z,5.90
2022-11-12T08:45:59.742Z,6.00
2022-11-12T08:48:45.140Z,6.00
2022-11-12T08:51:30.659Z,5.50
2022-11-12T08:54:16.039Z,6.10
2022-11-12T08:57:01.551Z,6.10
2022-11-12T08:59:47.341Z,6.00
2022-11-12T09:02:32.693Z,6.10
2022-11-12T09:05:18.160Z,6.00
2022-11-12T09:08:10.137Z,6.20
2022-11-12T09:10:58.301Z,6.10
2022-11-12T09:13:43.730Z,6.30
2022-11-12T09:16:29.483Z,6.20
2022-11-12T09:19:15.310Z,6.30
2022-11-12T09:22:00.776Z,6.20
2022-11-12T09:24:46.282Z,6.30
2022-11-12T09:27:31.725Z,6.20
2022-11-12T09:30:17.365Z,4.70
2022-11-12T09:33:02.858Z,6.20
2022-11-12T09:35:48.780Z,6.30
2022-11-12T09:38:34.527Z,6.30
2022-11-12T09:41:30.028Z,6.30
2022-11-12T09:44:22.119Z,6.40
2022-11-12T09:47:21.012Z,6.50
2022-11-12T09:50:27.904Z,6.40
2022-11-12T09:53:32.899Z,6.40
2022-11-12T09:56:24.491Z,6.40
2022-11-12T09:59:13.581Z,6.40
2022-11-12T10:02:47.951Z,6.90
2022-11-12T10:05:41.451Z,6.60
2022-11-12T10:09:00.831Z,6.70
2022-11-12T10:12:22.595Z,6.70
2022-11-12T10:16:08.719Z,6.70
2022-11-12T10:19:16.575Z,7.50
2022-11-12T10:22:13.740Z,7.00
2022-11-12T10:25:14.719Z,6.90
2022-11-12T10:28:12.702Z,7.20
2022-11-12T10:31:10.987Z,6.70
2022-11-12T10:34:16.678Z,7.00
2022-11-12T10:37:15.430Z,7.30
2022-11-12T10:40:20.982Z,7.10
2022-11-12T10:43:18.925Z,7.10
2022-11-12T10:46:29.015Z,7.20
2022-11-12T10:49:14.368Z,7.70
2022-11-12T10:54:50.935Z,7.30
2022-11-12T10:57:39.540Z,8.00
2022-11-12T11:00:25.487Z,8.20
2022-11-12T11:03:22.466Z,7.80
2022-11-12T11:06:22.935Z,8.10
2022-11-12T11:09:17.319Z,7.70
2022-11-12T11:12:03.523Z,7.40
2022-11-12T11:15:18.228Z,8.00
2022-11-12T11:21:14.738Z,7.80
2022-11-12T11:24:20.786Z,8.30
2022-11-12T11:27:48.700Z,8.70
2022-11-12T11:30:35.214Z,9.50
2022-11-12T11:33:58.322Z,9.30
2022-11-12T11:37:16.349Z,10.20
2022-11-12T11:40:20.250Z,10.20
2022-11-12T11:43:58.246Z,10.30
2022-11-12T11:46:59.233Z,10.70
2022-11-12T11:49:56.897Z,11.00
2022-11-12T11:53:19.506Z,9.90
2022-11-12T11:56:28.817Z,10.30
2022-11-12T11:59:56.457Z,10.70
2022-11-12T12:03:22.490Z,10.70
2022-11-12T12:06:36.677Z,11.50
2022-11-12T12:09:46.172Z,10.80
2022-11-12T12:12:50.797Z,10.70
2022-11-12T12:16:07.076Z,11.40
2022-11-12T12:19:04.838Z,12.30
2022-11-12T12:21:51.824Z,11.50
2022-11-12T12:24:56.293Z,11.50
2022-11-12T12:28:00.785Z,12.00
2022-11-12T12:30:51.996Z,12.00
2022-11-12T12:34:15.416Z,11.60
2022-11-12T12:37:27.673Z,11.80
2022-11-12T12:41:06.220Z,12.00
2022-11-12T12:44:04.049Z,11.80
2022-11-12T12:47:01.040Z,12.40
2022-11-12T12:49:49.010Z,11.90
2022-11-12T12:53:02.871Z,12.10
2022-11-12T12:55:51.724Z,12.00
2022-11-12T12:58:40.529Z,11.80
2022-11-12T13:01:34.167Z,11.50
2022-11-12T13:04:55.509Z,11.40
2022-11-12T13:07:46.371Z,11.30
2022-11-12T13:10:44.528Z,11.00
2022-11-12T13:13:38.582Z,11.40
2022-11-12T13:16:52.492Z,11.70
2022-11-12T13:19:53.368Z,11.20
2022-11-12T13:22:38.717Z,11.20
2022-11-12T13:25:28.804Z,11.40
2022-11-12T13:28:14.403Z,11.20
2022-11-12T13:31:03.739Z,11.30
2022-11-12T13:33:49.574Z,11.40
2022-11-12T13:36:35.694Z,11.30
2022-11-12T13:39:24.098Z,12.40
2022-11-12T13:42:34.741Z,11.40
2022-11-12T13:45:25.330Z,11.40
2022-11-12T13:48:36.521Z,11.70
2022-11-12T13:51:52.087Z,11.60
2022-11-12T13:54:39.120Z,11.10
2022-11-12T13:57:30.194Z,11.50
2022-11-12T14:00:20.714Z,11.70
2022-11-12T14:03:07.891Z,11.50
2022-11-12T14:05:53.860Z,11.20
2022-11-12T14:08:57.658Z,11.40
2022-11-12T14:12:17.389Z,11.90
2022-11-12T14:15:18.608Z,11.50
2022-11-12T14:18:30.829Z,11.30
2022-11-12T14:21:18.464Z,11.10
2022-11-12T14:24:05.213Z,11.20
2022-11-12T14:26:51.009Z,11.20
2022-11-12T14:29:41.106Z,11.00
2022-11-12T14:32:37.125Z,11.70
2022-11-12T14:35:29.958Z,11.00
2022-11-12T14:38:53.937Z,11.10
2022-11-12T14:41:42.809Z,10.90
2022-11-12T14:44:37.338Z,10.80
2022-11-12T14:47:24.291Z,10.80
2022-11-12T14:50:18.080Z,10.90
2022-11-12T14:53:20.477Z,10.60
2022-11-12T14:56:32.625Z,10.90
2022-11-12T15:02:42.681Z,10.60
2022-11-12T15:05:27.480Z,10.50
2022-11-12T15:11:24.607Z,10.50
2022-11-12T15:14:21.779Z,10.40
2022-11-12T15:17:07.350Z,10.70
2022-11-12T15:19:52.790Z,10.30
2022-11-12T15:22:38.443Z,10.20
2022-11-12T15:25:26.779Z,10.00
2022-11-12T15:28:25.269Z,9.90
2022-11-12T15:31:22.043Z,9.90
2022-11-12T15:34:38.872Z,10.00
2022-11-12T15:37:30.749Z,10.30
2022-11-12T15:40:21.945Z,9.80
2022-11-12T15:43:32.025Z,9.70
2022-11-12T15:49:13.272Z,9.60
2022-11-12T15:52:01.765Z,9.40
2022-11-12T15:54:47.500Z,9.60
2022-11-12T15:57:49.333Z,9.70
2022-11-12T16:00:37.358Z,9.70
2022-11-12T16:03:23.143Z,9.90
2022-11-12T16:06:12.263Z,9.50
2022-11-12T16:08:57.896Z,9.50
2022-11-12T16:11:43.439Z,9.40
2022-11-12T16:14:28.988Z,8.90
2022-11-12T16:17:19.037Z,9.20
2022-11-12T16:20:18.451Z,9.10
2022-11-12T16:25:50.448Z,9.20
2022-11-12T16:28:36.260Z,9.20
2022-11-12T16:31:22.035Z,9.10
2022-11-12T16:36:53.599Z,9.00
2022-11-12T16:39:39.358Z,10.80
2022-11-12T16:42:24.704Z,9.00
2022-11-12T16:45:10.416Z,9.10
2022-11-12T16:47:56.311Z,8.90
2022-11-12T16:50:41.763Z,8.80
2022-11-12T16:53:27.550Z,8.80
2022-11-12T16:56:17.734Z,8.90
2022-11-12T16:59:04.492Z,8.90
2022-11-12T17:01:49.869Z,8.70
2022-11-12T17:04:35.425Z,8.80
2022-11-12T17:07:21.045Z,8.70
2022-11-12T17:10:06.961Z,8.90
2022-11-12T17:12:52.761Z,8.90
2022-11-12T17:15:38.358Z,8.80
2022-11-12T17:18:23.640Z,8.70
2022-11-12T17:21:16.261Z,8.80
2022-11-12T17:24:01.537Z,8.70
2022-11-12T17:26:47.443Z,8.70
2022-11-12T17:29:32.825Z,8.60
2022-11-12T17:32:18.612Z,8.70
2022-11-12T17:35:04.618Z,8.70
2022-11-12T17:37:51.378Z,8.60
2022-11-12T17:40:36.922Z,8.80
2022-11-12T17:43:22.445Z,8.70
2022-11-12T17:46:09.826Z,8.50
2022-11-12T17:48:56.542Z,8.60
2022-11-12T17:51:42.138Z,8.70
2022-11-12T17:54:27.674Z,8.60
2022-11-12T17:57:13.091Z,8.50
2022-11-12T17:59:58.524Z,8.50
2022-11-12T18:02:44.027Z,8.50
2022-11-12T18:05:30.476Z,8.50
2022-11-12T18:08:16.114Z,8.50
2022-11-12T18:11:02.985Z,8.40
2022-11-12T18:13:48.449Z,8.40
2022-11-12T18:16:33.896Z,8.40
2022-11-12T18:19:19.457Z,8.50
2022-11-12T18:22:04.880Z,8.40
2022-11-12T18:24:50.652Z,8.40
2022-11-12T18:27:37.424Z,8.30
2022-11-12T18:30:23.226Z,8.30
2022-11-12T18:33:08.910Z,8.50
2022-11-12T18:36:17.961Z,8.10
2022-11-12T18:39:05.072Z,8.30
2022-11-12T18:41:51.322Z,8.30
2022-11-12T18:44:37.182Z,7.20
2022-11-12T18:47:22.605Z,8.40
2022-11-12T18:50:09.078Z,8.30
2022-11-12T18:52:54.700Z,8.20
2022-11-12T18:55:40.184Z,8.30
2022-11-12T18:58:29.417Z,8.30
2022-11-12T19:01:23.100Z,8.20
2022-11-12T19:04:11.005Z,8.20
2022-11-12T19:06:56.872Z,8.30
2022-11-12T19:09:42.438Z,8.30
2022-11-12T19:12:28.862Z,8.20
2022-11-12T19:15:14.267Z,8.10
2022-11-12T19:18:04.089Z,8.30
2022-11-12T19:20:49.734Z,8.10
2022-11-12T19:23:35.563Z,8.10
2022-11-12T19:26:22.354Z,8.00
2022-11-12T19:29:07.676Z,8.10
2022-11-12T19:31:53.016Z,8.10
2022-11-12T19:34:38.567Z,8.00
2022-11-12T19:37:33.431Z,8.30
2022-11-12T19:40:20.047Z,7.90
2022-11-12T19:43:05.427Z,8.00
2022-11-12T19:45:50.937Z,8.00
2022-11-12T19:48:36.670Z,7.90
2022-11-12T19:51:22.251Z,8.00
2022-11-12T19:54:08.410Z,7.90
2022-11-12T19:56:53.726Z,7.90
2022-11-12T20:02:29.056Z,8.00
2022-11-12T20:05:14.427Z,8.40
2022-11-12T20:07:59.938Z,7.80
2022-11-12T20:13:31.814Z,7.80
2022-11-12T20:16:24.880Z,7.80
2022-11-12T20:19:11.336Z,7.80
2022-11-12T20:21:57.039Z,7.80
2022-11-12T20:24:42.675Z,7.80
2022-11-12T20:27:28.202Z,7.70
2022-11-12T20:30:13.688Z,7.80
2022-11-12T20:32:59.345Z,7.70
2022-11-12T20:35:45.449Z,7.70
2022-11-12T20:38:31.325Z,7.70
2022-11-12T20:41:20.282Z,7.70
2022-11-12T20:44:06.318Z,7.60
2022-11-12T20:46:51.707Z,8.80
2022-11-12T20:49:37.157Z,7.70
2022-11-12T20:52:22.537Z,7.60
2022-11-12T20:55:08.272Z,7.70
2022-11-12T21:00:40.740Z,7.50
2022-11-12T21:03:26.533Z,7.60
2022-11-12T21:06:19.686Z,7.50
2022-11-12T21:09:05.010Z,7.60
2022-11-12T21:11:50.534Z,7.60
2022-11-12T21:14:35.947Z,7.40
2022-11-12T21:17:21.326Z,7.60
2022-11-12T21:20:07.535Z,7.50
2022-11-12T21:22:52.822Z,7.50
2022-11-12T21:25:39.326Z,7.50
2022-11-12T21:28:25.124Z,7.50
2022-11-12T21:31:17.863Z,7.40
2022-11-12T21:34:04.526Z,7.50
2022-11-12T21:36:50.070Z,7.40
2022-11-12T21:39:35.514Z,7.40
2022-11-12T21:42:20.895Z,7.20
2022-11-12T21:45:06.993Z,7.30
2022-11-12T21:47:53.700Z,7.60
2022-11-12T21:50:39.343Z,7.30
2022-11-12T21:53:25.075Z,7.30
2022-11-12T21:56:17.750Z,7.20
2022-11-12T21:59:04.470Z,7.30
2022-11-12T22:01:50.172Z,7.20
2022-11-12T22:04:35.633Z,7.10
2022-11-12T22:07:21.056Z,7.10
2022-11-12T22:10:07.269Z,6.30
2022-11-12T22:13:24.694Z,7.10
2022-11-12T22:15:58.943Z,7.30
2022-11-12T22:18:48.365Z,7.10
2022-11-12T22:21:38.611Z,7.10
2022-11-12T22:24:25.497Z,7.20
2022-11-12T22:27:10.833Z,6.50
2022-11-12T22:29:56.309Z,7.00
2022-11-12T22:32:41.799Z,6.10
2022-11-12T22:35:27.087Z,7.00
2022-11-12T22:38:12.675Z,6.90
2022-11-12T22:41:04.279Z,7.00
2022-11-12T22:43:53.009Z,7.00
2022-11-12T22:46:38.646Z,6.90
2022-11-12T22:49:24.126Z,6.90
2022-11-12T22:52:09.558Z,6.90
2022-11-12T22:54:54.773Z,5.60
2022-11-12T23:00:32.217Z,6.90
2022-11-12T23:03:17.921Z,7.00
2022-11-12T23:06:05.994Z,6.90
2022-11-12T23:08:53.123Z,6.90
2022-11-12T23:11:38.747Z,5.80
2022-11-12T23:17:10.365Z,6.90
2022-11-12T23:19:55.733Z,6.80
2022-11-12T23:22:41.251Z,6.80
2022-11-12T23:25:26.610Z,6.70
2022-11-12T23:28:12.187Z,6.70
2022-11-12T23:30:57.799Z,6.80
2022-11-12T23:33:53.335Z,6.70
2022-11-12T23:36:38.828Z,6.70
2022-11-12T23:39:24.493Z,6.70
2022-11-12T23:42:09.962Z,6.70
2022-11-12T23:44:55.442Z,6.60
2022-11-12T23:50:26.794Z,6.60
2022-11-12T23:53:12.623Z,6.60
2022-11-12T23:55:58.142Z,6.60
2022-11-12T23:58:44.758Z,8.40
